createdAt,value
2018-12-15T00:01:01.904Z,2.45
2018-12-15T00:03:28.191Z,2.41
2018-12-15T00:05:54.483Z,2.42
2018-12-15T00:08:20.769Z,2.42
2018-12-15T00:10:47.043Z,2.42
2018-12-15T00:13:13.320Z,2.43
2018-12-15T00:15:39.768Z,2.42
2018-12-15T00:18:05.990Z,2.44
2018-12-15T00:20:32.275Z,2.45
2018-12-15T00:22:58.599Z,2.50
2018-12-15T00:25:24.878Z,2.51
2018-12-15T00:27:51.222Z,2.53
2018-12-15T00:30:17.496Z,2.56
2018-12-15T00:32:43.779Z,2.59
2018-12-15T00:35:10.074Z,2.58
2018-12-15T00:37:36.367Z,2.59
2018-12-15T00:40:02.642Z,2.63
2018-12-15T00:42:28.956Z,2.65
2018-12-15T00:44:55.222Z,2.66
2018-12-15T00:47:21.524Z,2.67
2018-12-15T00:49:47.798Z,2.66
2018-12-15T00:52:14.099Z,2.68
2018-12-15T00:54:40.388Z,2.71
2018-12-15T00:57:06.698Z,2.75
2018-12-15T00:59:32.989Z,2.77
2018-12-15T01:01:59.322Z,2.75
2018-12-15T01:04:25.601Z,2.75
2018-12-15T01:06:51.923Z,2.73
2018-12-15T01:09:18.188Z,2.73
2018-12-15T01:11:44.495Z,2.68
2018-12-15T01:14:10.779Z,2.65
2018-12-15T01:16:37.163Z,2.61
2018-12-15T01:19:03.447Z,2.61
2018-12-15T01:21:29.752Z,2.62
2018-12-15T01:23:56.028Z,2.66
2018-12-15T01:26:22.328Z,2.70
2018-12-15T01:28:48.627Z,2.73
2018-12-15T01:31:14.920Z,2.75
2018-12-15T01:33:41.196Z,2.74
2018-12-15T01:36:07.517Z,2.79
2018-12-15T01:38:33.814Z,2.85
2018-12-15T01:41:00.110Z,2.83
2018-12-15T01:43:26.399Z,2.77
2018-12-15T01:45:52.663Z,2.73
2018-12-15T01:48:18.948Z,2.75
2018-12-15T01:50:45.266Z,2.76
2018-12-15T01:53:11.564Z,2.74
2018-12-15T01:55:37.882Z,2.73
2018-12-15T01:58:04.173Z,2.70
2018-12-15T02:00:30.460Z,2.70
2018-12-15T02:02:56.818Z,2.68
2018-12-15T02:05:23.104Z,2.59
2018-12-15T02:07:49.381Z,2.58
2018-12-15T02:10:15.674Z,2.61
2018-12-15T02:12:41.958Z,2.63
2018-12-15T02:15:08.248Z,2.62
2018-12-15T02:17:34.536Z,2.67
2018-12-15T02:20:00.846Z,2.69
2018-12-15T02:22:27.140Z,2.66
2018-12-15T02:24:53.415Z,2.67
2018-12-15T02:27:19.738Z,2.68
2018-12-15T02:29:46.027Z,2.70
2018-12-15T02:32:12.309Z,2.71
2018-12-15T02:34:38.632Z,2.75
2018-12-15T02:37:04.925Z,2.76
2018-12-15T02:39:31.189Z,2.76
2018-12-15T02:41:57.524Z,2.77
2018-12-15T02:44:23.789Z,2.77
2018-12-15T02:46:50.074Z,2.75
2018-12-15T02:49:16.391Z,2.72
2018-12-15T02:51:42.669Z,2.71
2018-12-15T02:54:08.972Z,2.65
2018-12-15T02:56:35.250Z,2.68
2018-12-15T02:59:01.546Z,2.69
2018-12-15T03:01:27.810Z,2.71
2018-12-15T03:03:54.101Z,2.72
2018-12-15T03:06:20.428Z,2.71
2018-12-15T03:08:46.719Z,2.71
2018-12-15T03:11:13.001Z,2.71
2018-12-15T03:13:39.286Z,2.72
2018-12-15T03:16:05.580Z,2.74
2018-12-15T03:18:31.865Z,2.73
2018-12-15T03:20:58.139Z,2.75
2018-12-15T03:23:24.539Z,2.75
2018-12-15T03:25:50.818Z,2.74
2018-12-15T03:28:17.081Z,2.75
2018-12-15T03:30:43.374Z,2.77
2018-12-15T03:33:09.637Z,2.78
2018-12-15T03:35:35.953Z,2.82
2018-12-15T03:38:02.216Z,2.85
2018-12-15T03:40:28.511Z,2.83
2018-12-15T03:42:54.804Z,2.81
2018-12-15T03:45:21.113Z,2.78
2018-12-15T03:47:47.405Z,2.78
2018-12-15T03:50:13.681Z,2.76
2018-12-15T03:52:40.005Z,2.72
2018-12-15T03:55:06.303Z,2.69
2018-12-15T03:57:32.588Z,2.70
2018-12-15T03:59:58.871Z,2.69
2018-12-15T04:02:25.176Z,2.68
2018-12-15T04:04:51.473Z,2.67
2018-12-15T04:07:17.757Z,2.66
2018-12-15T04:09:44.047Z,2.62
2018-12-15T04:12:10.320Z,2.61
2018-12-15T04:14:36.599Z,2.61
2018-12-15T04:17:02.912Z,2.60
2018-12-15T04:19:29.203Z,2.59
2018-12-15T04:21:55.524Z,2.56
2018-12-15T04:24:21.790Z,2.57
2018-12-15T04:26:48.058Z,2.59
2018-12-15T04:29:14.339Z,2.58
2018-12-15T04:31:40.649Z,2.59
2018-12-15T04:34:06.922Z,2.59
2018-12-15T04:36:33.244Z,2.57
2018-12-15T04:38:59.492Z,2.58
2018-12-15T04:41:25.800Z,2.58
2018-12-15T04:43:52.075Z,2.66
2018-12-15T04:46:18.383Z,2.69
2018-12-15T04:48:44.666Z,2.71
2018-12-15T04:51:10.945Z,2.73
2018-12-15T04:53:37.220Z,2.78
2018-12-15T04:56:03.515Z,2.80
2018-12-15T04:58:29.797Z,2.82
2018-12-15T05:00:56.093Z,2.80
2018-12-15T05:03:22.947Z,2.77
2018-12-15T05:05:48.699Z,2.76
2018-12-15T05:08:14.972Z,2.70
2018-12-15T05:10:41.288Z,2.65
2018-12-15T05:13:07.582Z,2.59
2018-12-15T05:15:33.866Z,2.58
2018-12-15T05:18:00.145Z,2.61
2018-12-15T05:20:26.456Z,2.65
2018-12-15T05:22:52.734Z,2.62
2018-12-15T05:25:19.039Z,2.62
2018-12-15T05:27:45.308Z,2.61
2018-12-15T05:30:11.642Z,2.59
2018-12-15T05:32:37.916Z,2.60
2018-12-15T05:35:04.226Z,2.56
2018-12-15T05:37:30.509Z,2.54
2018-12-15T05:39:56.791Z,2.58
2018-12-15T05:42:23.086Z,2.58
2018-12-15T05:44:49.375Z,2.62
2018-12-15T05:47:15.664Z,2.67
2018-12-15T05:49:41.949Z,2.72
2018-12-15T05:52:08.253Z,2.74
2018-12-15T05:54:34.524Z,2.76
2018-12-15T05:57:00.838Z,2.77
2018-12-15T05:59:27.130Z,2.78
2018-12-15T06:01:53.414Z,2.83
2018-12-15T06:04:19.730Z,2.84
2018-12-15T06:06:46.033Z,2.87
2018-12-15T06:09:12.318Z,2.86
2018-12-15T06:11:38.596Z,2.89
2018-12-15T06:14:04.885Z,2.91
2018-12-15T06:16:31.185Z,2.90
2018-12-15T06:18:57.467Z,2.91
2018-12-15T06:21:23.757Z,2.91
2018-12-15T06:23:50.055Z,2.88
2018-12-15T06:26:16.344Z,2.86
2018-12-15T06:28:42.684Z,2.83
2018-12-15T06:31:08.984Z,2.82
2018-12-15T06:33:35.254Z,2.86
2018-12-15T06:36:01.575Z,2.91
2018-12-15T06:38:27.840Z,2.92
2018-12-15T06:40:54.123Z,2.93
2018-12-15T06:43:20.413Z,2.93
2018-12-15T06:45:46.692Z,3.00
2018-12-15T06:48:12.993Z,3.09
2018-12-15T06:50:39.270Z,3.14
2018-12-15T06:53:05.538Z,3.22
2018-12-15T06:55:31.833Z,3.26
2018-12-15T06:57:58.129Z,3.28
2018-12-15T07:00:24.440Z,3.30
2018-12-15T07:02:50.730Z,3.29
2018-12-15T07:05:17.003Z,3.30
2018-12-15T07:07:43.279Z,3.34
2018-12-15T07:10:09.572Z,3.37
2018-12-15T07:12:35.935Z,3.43
2018-12-15T07:15:02.138Z,3.50
2018-12-15T07:17:28.432Z,3.52
2018-12-15T07:19:54.707Z,3.61
2018-12-15T07:22:21.003Z,3.60
2018-12-15T07:24:47.299Z,3.64
2018-12-15T07:27:13.599Z,3.68
2018-12-15T07:29:39.905Z,3.72
2018-12-15T07:32:06.197Z,3.70
2018-12-15T07:34:32.491Z,3.74
2018-12-15T07:36:58.789Z,3.74
2018-12-15T07:39:25.065Z,3.67
2018-12-15T07:41:51.339Z,3.65
2018-12-15T07:44:17.628Z,3.65
2018-12-15T07:46:43.972Z,3.68
2018-12-15T07:49:10.273Z,3.77
2018-12-15T07:51:36.561Z,3.91
2018-12-15T07:54:02.849Z,3.98
2018-12-15T07:56:29.131Z,4.04
2018-12-15T07:58:55.503Z,4.15
2018-12-15T08:01:21.780Z,4.25
2018-12-15T08:03:48.083Z,4.25
2018-12-15T08:06:14.384Z,4.29
2018-12-15T08:08:40.689Z,4.47
2018-12-15T08:11:06.969Z,4.60
2018-12-15T08:13:33.281Z,4.68
2018-12-15T08:15:59.558Z,4.76
2018-12-15T08:18:25.866Z,4.82
2018-12-15T08:20:52.157Z,4.81
2018-12-15T08:23:18.446Z,4.70
2018-12-15T08:25:44.732Z,4.73
2018-12-15T08:28:11.065Z,4.73
2018-12-15T08:30:37.370Z,4.65
2018-12-15T08:33:03.655Z,4.64
2018-12-15T08:35:29.942Z,4.61
2018-12-15T08:37:56.262Z,4.60
2018-12-15T08:40:22.543Z,4.72
2018-12-15T08:42:48.852Z,4.88
2018-12-15T08:45:15.148Z,4.94
2018-12-15T08:47:41.516Z,4.95
2018-12-15T08:50:07.741Z,4.88
2018-12-15T08:52:34.043Z,4.94
2018-12-15T08:55:00.348Z,5.09
2018-12-15T08:57:26.638Z,5.12
2018-12-15T08:59:52.934Z,5.23
2018-12-15T09:02:19.224Z,5.16
2018-12-15T09:04:45.514Z,5.08
2018-12-15T09:07:11.822Z,5.10
2018-12-15T09:09:38.164Z,5.01
2018-12-15T09:12:04.481Z,5.08
2018-12-15T09:14:30.765Z,5.11
2018-12-15T09:16:57.072Z,5.25
2018-12-15T09:19:23.375Z,5.33
2018-12-15T09:21:49.680Z,5.25
2018-12-15T09:24:15.990Z,5.29
2018-12-15T09:26:42.310Z,5.35
2018-12-15T09:29:08.560Z,5.35
2018-12-15T09:31:34.855Z,5.31
2018-12-15T09:34:01.159Z,5.28
2018-12-15T09:36:27.447Z,5.32
2018-12-15T09:38:53.787Z,5.32
2018-12-15T09:41:20.106Z,5.33
2018-12-15T09:43:46.392Z,5.37
2018-12-15T09:46:12.686Z,5.38
2018-12-15T09:48:39.002Z,5.40
2018-12-15T09:51:05.321Z,5.35
2018-12-15T09:53:31.601Z,5.39
2018-12-15T09:55:57.871Z,5.42
2018-12-15T09:58:24.189Z,5.40
2018-12-15T10:00:50.554Z,5.29
2018-12-15T10:03:16.848Z,5.25
2018-12-15T10:05:43.181Z,5.25
2018-12-15T10:08:09.469Z,5.25
2018-12-15T10:10:35.770Z,5.31
2018-12-15T10:13:02.115Z,5.29
2018-12-15T10:15:28.408Z,5.20
2018-12-15T10:17:54.769Z,5.24
2018-12-15T10:20:21.055Z,5.18
2018-12-15T10:22:47.340Z,5.12
2018-12-15T10:25:13.644Z,5.08
2018-12-15T10:27:39.939Z,5.07
2018-12-15T10:30:07.950Z,5.15
2018-12-15T10:32:34.241Z,5.32
2018-12-15T10:35:00.525Z,5.25
2018-12-15T10:37:26.806Z,5.23
2018-12-15T10:39:53.083Z,5.23
2018-12-15T10:42:19.402Z,5.27
2018-12-15T10:44:45.708Z,5.33
2018-12-15T10:47:11.997Z,5.29
2018-12-15T10:49:38.305Z,5.26
2018-12-15T10:52:04.615Z,5.32
2018-12-15T10:54:30.906Z,5.33
2018-12-15T10:56:57.200Z,5.21
2018-12-15T10:59:23.495Z,5.07
2018-12-15T11:01:49.776Z,5.01
2018-12-15T11:04:16.073Z,4.97
2018-12-15T11:06:42.352Z,5.02
2018-12-15T11:09:08.665Z,5.14
2018-12-15T11:11:34.952Z,5.11
2018-12-15T11:14:01.267Z,5.10
2018-12-15T11:16:27.555Z,5.06
2018-12-15T11:18:53.856Z,5.04
2018-12-15T11:21:20.164Z,5.09
2018-12-15T11:23:46.667Z,5.14
2018-12-15T11:26:12.953Z,5.14
2018-12-15T11:28:39.978Z,5.14
2018-12-15T11:31:06.287Z,5.17
2018-12-15T11:33:32.558Z,5.29
2018-12-15T11:35:58.908Z,5.28
2018-12-15T11:38:25.174Z,5.27
2018-12-15T11:40:51.460Z,5.20
2018-12-15T11:43:17.772Z,5.16
2018-12-15T11:45:44.047Z,5.19
2018-12-15T11:48:10.337Z,5.21
2018-12-15T11:50:36.617Z,5.19
2018-12-15T11:53:02.946Z,5.18
2018-12-15T11:55:29.241Z,5.23
2018-12-15T11:57:55.547Z,5.26
2018-12-15T12:00:21.842Z,5.23
2018-12-15T12:02:48.157Z,5.22
2018-12-15T12:05:14.458Z,5.12
2018-12-15T12:07:40.732Z,5.18
2018-12-15T12:10:07.036Z,5.25
2018-12-15T12:12:33.346Z,5.21
2018-12-15T12:14:59.686Z,5.25
2018-12-15T12:17:26.002Z,5.24
2018-12-15T12:19:52.293Z,5.19
2018-12-15T12:22:18.574Z,5.23
2018-12-15T12:24:44.880Z,5.25
2018-12-15T12:27:11.184Z,5.29
2018-12-15T12:29:37.470Z,5.32
2018-12-15T12:32:03.780Z,5.31
2018-12-15T12:34:30.067Z,5.35
2018-12-15T12:36:56.367Z,5.39
2018-12-15T12:39:22.655Z,5.38
2018-12-15T12:41:48.980Z,5.36
2018-12-15T12:44:15.275Z,5.32
2018-12-15T12:46:41.562Z,5.31
2018-12-15T12:49:07.850Z,5.33
2018-12-15T12:51:34.145Z,5.35
2018-12-15T12:54:00.429Z,5.34
2018-12-15T12:56:26.726Z,5.36
2018-12-15T12:58:53.037Z,5.35
2018-12-15T13:01:19.331Z,5.30
2018-12-15T13:03:45.621Z,5.29
2018-12-15T13:06:11.937Z,5.27
2018-12-15T13:08:38.236Z,5.29
2018-12-15T13:11:04.560Z,5.31
2018-12-15T13:13:30.862Z,5.31
2018-12-15T13:15:57.170Z,5.29
2018-12-15T13:18:23.456Z,5.19
2018-12-15T13:20:49.728Z,5.15
2018-12-15T13:23:16.011Z,5.11
2018-12-15T13:25:42.322Z,5.10
2018-12-15T13:28:08.625Z,5.08
2018-12-15T13:30:34.990Z,5.10
2018-12-15T13:33:01.230Z,5.10
2018-12-15T13:35:27.547Z,5.07
2018-12-15T13:37:53.845Z,4.97
2018-12-15T13:40:20.168Z,4.98
2018-12-15T13:42:46.495Z,5.00
2018-12-15T13:45:12.801Z,4.99
2018-12-15T13:47:39.044Z,5.03
2018-12-15T13:50:10.169Z,5.06
2018-12-15T13:52:31.598Z,5.09
2018-12-15T13:54:57.888Z,5.15
2018-12-15T13:57:24.200Z,5.12
2018-12-15T13:59:50.473Z,5.10
2018-12-15T14:02:16.774Z,5.11
2018-12-15T14:04:43.082Z,5.13
2018-12-15T14:07:09.360Z,5.12
2018-12-15T14:09:35.675Z,5.15
2018-12-15T14:12:01.999Z,5.18
2018-12-15T14:14:28.275Z,5.20
2018-12-15T14:16:54.576Z,5.23
2018-12-15T14:19:20.943Z,5.20
2018-12-15T14:21:47.226Z,5.19
2018-12-15T14:24:13.525Z,5.19
2018-12-15T14:26:39.800Z,5.22
2018-12-15T14:29:06.075Z,5.22
2018-12-15T14:31:32.400Z,5.19
2018-12-15T14:33:58.666Z,5.17
2018-12-15T14:36:24.950Z,5.12
2018-12-15T14:38:51.255Z,5.10
2018-12-15T14:41:17.584Z,5.09
2018-12-15T14:43:43.897Z,5.02
2018-12-15T14:46:10.175Z,4.97
2018-12-15T14:48:36.473Z,4.92
2018-12-15T14:51:02.745Z,4.82
2018-12-15T14:53:29.051Z,4.77
2018-12-15T14:55:56.197Z,4.76
2018-12-15T14:58:21.616Z,4.78
2018-12-15T15:00:47.907Z,4.82
2018-12-15T15:03:14.200Z,4.84
2018-12-15T15:05:40.503Z,4.87
2018-12-15T15:08:06.805Z,4.91
2018-12-15T15:10:33.113Z,4.97
2018-12-15T15:12:59.420Z,5.02
2018-12-15T15:15:25.717Z,5.07
2018-12-15T15:17:52.033Z,5.12
2018-12-15T15:20:18.331Z,5.10
2018-12-15T15:22:44.657Z,5.08
2018-12-15T15:25:10.936Z,5.08
2018-12-15T15:27:37.201Z,5.07
2018-12-15T15:30:07.510Z,5.07
2018-12-15T15:32:33.804Z,5.06
2018-12-15T15:35:00.101Z,5.05
2018-12-15T15:37:26.394Z,5.04
2018-12-15T15:39:52.740Z,5.04
2018-12-15T15:42:19.037Z,5.05
2018-12-15T15:44:45.317Z,5.06
2018-12-15T15:47:11.617Z,5.07
2018-12-15T15:49:37.912Z,5.07
2018-12-15T15:52:04.241Z,5.07
2018-12-15T15:54:30.522Z,5.09
2018-12-15T15:56:56.821Z,5.10
2018-12-15T15:59:23.100Z,5.11
2018-12-15T16:01:49.376Z,5.15
2018-12-15T16:04:15.660Z,5.17
2018-12-15T16:06:41.953Z,5.14
2018-12-15T16:09:08.243Z,5.15
2018-12-15T16:11:34.541Z,5.14
2018-12-15T16:14:00.845Z,5.13
2018-12-15T16:16:27.173Z,5.12
2018-12-15T16:18:53.463Z,5.12
2018-12-15T16:21:19.746Z,5.11
2018-12-15T16:23:46.054Z,5.08
2018-12-15T16:26:12.349Z,5.07
2018-12-15T16:28:38.653Z,5.07
2018-12-15T16:31:04.954Z,5.05
2018-12-15T16:33:31.224Z,5.05
2018-12-15T16:35:57.529Z,5.04
2018-12-15T16:38:23.831Z,5.03
2018-12-15T16:40:50.148Z,5.02
2018-12-15T16:43:16.431Z,5.02
2018-12-15T16:45:42.719Z,5.05
2018-12-15T16:48:09.012Z,5.07
2018-12-15T16:50:35.305Z,5.08
2018-12-15T16:53:01.589Z,5.09
2018-12-15T16:55:27.888Z,5.11
2018-12-15T16:57:54.283Z,5.10
2018-12-15T17:00:20.573Z,5.09
2018-12-15T17:02:46.878Z,5.10
2018-12-15T17:05:13.185Z,5.13
2018-12-15T17:07:39.486Z,5.14
2018-12-15T17:10:05.793Z,5.17
2018-12-15T17:12:32.076Z,5.20
2018-12-15T17:14:58.360Z,5.23
2018-12-15T17:17:24.697Z,5.28
2018-12-15T17:19:50.985Z,5.30
2018-12-15T17:22:17.268Z,5.32
2018-12-15T17:24:43.577Z,5.32
2018-12-15T17:27:09.868Z,5.31
2018-12-15T17:29:36.156Z,5.29
2018-12-15T17:32:02.980Z,5.28
2018-12-15T17:34:29.389Z,5.27
2018-12-15T17:36:55.671Z,5.26
2018-12-15T17:39:21.969Z,5.25
2018-12-15T17:41:48.292Z,5.26
2018-12-15T17:44:14.601Z,5.26
2018-12-15T17:46:40.904Z,5.27
2018-12-15T17:49:07.257Z,5.24
2018-12-15T17:51:33.532Z,5.22
2018-12-15T17:53:59.804Z,5.19
2018-12-15T17:56:26.105Z,5.18
2018-12-15T17:58:52.462Z,5.18
2018-12-15T18:01:18.771Z,5.29
2018-12-15T18:03:45.061Z,5.40
2018-12-15T18:06:11.375Z,5.30
2018-12-15T18:08:37.671Z,5.22
2018-12-15T18:11:04.014Z,5.20
2018-12-15T18:13:30.295Z,5.20
2018-12-15T18:15:56.606Z,5.21
2018-12-15T18:18:22.908Z,5.20
2018-12-15T18:20:49.202Z,5.20
2018-12-15T18:23:15.506Z,5.19
2018-12-15T18:25:41.801Z,5.19
2018-12-15T18:28:08.127Z,5.19
2018-12-15T18:30:34.434Z,5.19
2018-12-15T18:33:00.729Z,5.20
2018-12-15T18:35:27.392Z,5.17
2018-12-15T18:37:53.676Z,5.12
2018-12-15T18:40:19.989Z,5.07
2018-12-15T18:42:46.280Z,5.08
2018-12-15T18:45:12.542Z,5.10
2018-12-15T18:47:38.820Z,5.12
2018-12-15T18:50:05.130Z,5.15
2018-12-15T18:52:31.463Z,5.16
2018-12-15T18:54:57.752Z,5.16
2018-12-15T18:57:24.053Z,5.17
2018-12-15T18:59:50.351Z,5.21
2018-12-15T19:02:16.653Z,5.27
2018-12-15T19:04:42.931Z,5.28
2018-12-15T19:07:09.231Z,5.29
2018-12-15T19:09:35.523Z,5.32
2018-12-15T19:12:01.863Z,5.30
2018-12-15T19:14:28.156Z,5.28
2018-12-15T19:16:54.443Z,5.30
2018-12-15T19:19:20.757Z,5.31
2018-12-15T19:21:47.047Z,5.32
2018-12-15T19:24:13.341Z,5.30
2018-12-15T19:26:39.640Z,5.29
2018-12-15T19:29:05.928Z,5.26
2018-12-15T19:31:32.215Z,5.25
2018-12-15T19:33:58.551Z,5.22
2018-12-15T19:36:24.815Z,5.20
2018-12-15T19:38:51.115Z,5.20
2018-12-15T19:41:17.421Z,5.18
2018-12-15T19:43:43.696Z,5.18
2018-12-15T19:46:09.985Z,5.21
2018-12-15T19:48:36.306Z,5.25
2018-12-15T19:51:02.599Z,5.27
2018-12-15T19:53:28.880Z,5.28
2018-12-15T19:55:55.180Z,5.26
2018-12-15T19:58:21.470Z,5.19
2018-12-15T20:00:47.761Z,5.20
2018-12-15T20:03:14.083Z,5.19
2018-12-15T20:05:40.416Z,5.19
2018-12-15T20:08:06.703Z,5.17
2018-12-15T20:10:32.986Z,5.18
2018-12-15T20:12:59.415Z,5.22
2018-12-15T20:15:25.714Z,5.24
2018-12-15T20:17:52.042Z,5.23
2018-12-15T20:20:18.338Z,5.21
2018-12-15T20:22:44.640Z,5.20
2018-12-15T20:25:10.913Z,5.18
2018-12-15T20:27:37.198Z,5.23
2018-12-15T20:30:10.506Z,5.27
2018-12-15T20:32:36.782Z,5.31
2018-12-15T20:35:03.155Z,5.31
2018-12-15T20:37:29.475Z,5.33
2018-12-15T20:39:55.756Z,5.32
2018-12-15T20:42:22.106Z,5.34
2018-12-15T20:44:48.452Z,5.37
2018-12-15T20:47:14.731Z,5.39
2018-12-15T20:49:41.019Z,5.41
2018-12-15T20:52:07.437Z,5.41
2018-12-15T20:54:33.675Z,5.42
2018-12-15T20:56:59.977Z,5.42
2018-12-15T20:59:26.271Z,5.43
2018-12-15T21:01:52.560Z,5.47
2018-12-15T21:04:18.923Z,5.53
2018-12-15T21:06:45.257Z,5.54
2018-12-15T21:09:11.551Z,5.53
2018-12-15T21:11:37.841Z,5.52
2018-12-15T21:14:04.124Z,5.53
2018-12-15T21:16:30.458Z,5.53
2018-12-15T21:18:56.737Z,5.49
2018-12-15T21:21:23.072Z,5.43
2018-12-15T21:23:49.515Z,5.42
2018-12-15T21:26:15.870Z,5.40
2018-12-15T21:28:42.183Z,5.40
2018-12-15T21:31:08.472Z,5.39
2018-12-15T21:33:34.767Z,5.36
2018-12-15T21:36:01.108Z,5.36
2018-12-15T21:38:27.384Z,5.33
2018-12-15T21:40:53.679Z,5.30
2018-12-15T21:43:19.965Z,5.29
2018-12-15T21:45:46.269Z,5.24
2018-12-15T21:48:12.538Z,5.18
2018-12-15T21:50:38.831Z,5.22
2018-12-15T21:53:05.153Z,5.23
2018-12-15T21:55:31.445Z,5.24
2018-12-15T21:57:57.758Z,5.25
2018-12-15T22:00:27.047Z,5.31
2018-12-15T22:02:53.323Z,5.41
2018-12-15T22:05:19.616Z,5.52
2018-12-15T22:07:45.902Z,5.62
2018-12-15T22:10:12.215Z,5.65
2018-12-15T22:12:38.492Z,5.67
2018-12-15T22:15:04.782Z,5.62
2018-12-15T22:17:31.083Z,5.61
2018-12-15T22:19:57.376Z,5.64
2018-12-15T22:22:23.688Z,5.67
2018-12-15T22:24:49.993Z,5.72
2018-12-15T22:27:16.295Z,5.71
2018-12-15T22:29:42.583Z,5.77
2018-12-15T22:32:08.871Z,5.81
2018-12-15T22:34:35.185Z,5.88
2018-12-15T22:37:01.478Z,5.89
2018-12-15T22:39:27.793Z,5.89
2018-12-15T22:41:54.095Z,5.90
2018-12-15T22:44:20.393Z,5.91
2018-12-15T22:46:46.747Z,5.87
2018-12-15T22:49:12.998Z,5.89
2018-12-15T22:51:39.275Z,5.94
2018-12-15T22:54:05.617Z,5.92
2018-12-15T22:56:31.897Z,5.92
2018-12-15T22:58:58.171Z,5.86
2018-12-15T23:01:24.460Z,5.84
2018-12-15T23:03:50.734Z,5.82
2018-12-15T23:06:17.078Z,5.81
2018-12-15T23:08:43.393Z,5.77
2018-12-15T23:11:09.692Z,5.72
2018-12-15T23:13:35.983Z,5.68
2018-12-15T23:16:02.290Z,5.70
2018-12-15T23:18:28.587Z,5.73
2018-12-15T23:20:56.225Z,5.71
2018-12-15T23:23:21.185Z,5.72
2018-12-15T23:25:47.462Z,5.80
2018-12-15T23:28:13.842Z,5.79
2018-12-15T23:30:40.112Z,5.77
2018-12-15T23:33:06.421Z,5.83
2018-12-15T23:35:32.712Z,5.86
2018-12-15T23:37:59.038Z,5.83
2018-12-15T23:40:25.341Z,5.87
2018-12-15T23:42:51.881Z,5.91
2018-12-15T23:45:18.161Z,5.92
2018-12-15T23:47:44.454Z,5.87
2018-12-15T23:50:10.740Z,5.81
2018-12-15T23:52:37.041Z,5.83
2018-12-15T23:55:03.336Z,5.89
2018-12-15T23:57:29.630Z,5.98
2018-12-15T23:59:55.927Z,6.17
